createdAt,value
2022-12-29T00:01:46.855Z,99.90
2022-12-29T00:06:40.046Z,99.90
2022-12-29T00:11:34.173Z,99.90
2022-12-29T00:16:29.220Z,99.90
2022-12-29T00:21:45.119Z,99.90
2022-12-29T00:26:58.096Z,99.90
2022-12-29T00:32:09.949Z,99.90
2022-12-29T00:37:03.445Z,99.90
2022-12-29T00:42:24.920Z,99.90
2022-12-29T00:47:20.260Z,99.90
2022-12-29T00:52:16.187Z,99.90
2022-12-29T00:57:15.019Z,99.90
2022-12-29T01:02:10.099Z,99.90
2022-12-29T01:07:11.718Z,99.90
2022-12-29T01:12:09.463Z,99.90
2022-12-29T01:17:05.130Z,99.90
2022-12-29T01:22:00.208Z,99.90
2022-12-29T01:26:55.903Z,99.90
2022-12-29T01:31:57.100Z,99.90
2022-12-29T01:36:51.210Z,99.90
2022-12-29T01:41:45.332Z,99.90
2022-12-29T01:46:46.572Z,99.90
2022-12-29T01:52:04.990Z,99.90
2022-12-29T01:57:02.624Z,99.90
2022-12-29T02:01:56.398Z,99.90
2022-12-29T02:07:07.568Z,99.90
2022-12-29T02:12:14.743Z,99.90
2022-12-29T02:18:07.517Z,99.90
2022-12-29T02:23:38.650Z,99.90
2022-12-29T02:28:45.401Z,99.90
2022-12-29T02:34:12.812Z,99.90
2022-12-29T02:39:44.934Z,99.90
2022-12-29T02:44:56.951Z,99.90
2022-12-29T02:50:10.017Z,99.90
2022-12-29T02:55:03.533Z,99.90
2022-12-29T03:00:09.590Z,99.90
2022-12-29T03:05:28.021Z,99.90
2022-12-29T03:10:44.042Z,99.90
2022-12-29T03:16:05.460Z,99.90
2022-12-29T03:27:00.471Z,99.90
2022-12-29T03:37:24.427Z,99.90
2022-12-29T03:42:23.439Z,99.90
2022-12-29T03:47:18.574Z,99.90
2022-12-29T03:52:20.584Z,99.90
2022-12-29T03:57:17.872Z,99.90
2022-12-29T04:02:25.585Z,99.90
2022-12-29T04:07:21.187Z,99.90
2022-12-29T04:12:25.702Z,99.90
2022-12-29T04:17:20.169Z,99.90
2022-12-29T04:22:24.619Z,99.90
2022-12-29T04:27:19.728Z,99.90
2022-12-29T04:32:38.076Z,99.90
2022-12-29T04:37:32.782Z,99.90
2022-12-29T04:42:27.657Z,99.90
2022-12-29T04:52:51.685Z,99.90
2022-12-29T04:57:45.613Z,99.90
2022-12-29T05:02:46.224Z,99.90
2022-12-29T05:07:40.593Z,99.90
2022-12-29T05:12:38.989Z,99.90
2022-12-29T05:17:40.554Z,99.90
2022-12-29T05:22:34.578Z,99.90
2022-12-29T05:27:28.794Z,99.90
2022-12-29T05:32:39.557Z,99.90
2022-12-29T05:37:35.593Z,99.90
2022-12-29T05:42:33.989Z,99.90
2022-12-29T05:47:48.163Z,99.90
2022-12-29T05:53:04.017Z,99.90
2022-12-29T05:57:59.196Z,99.90
2022-12-29T06:02:54.212Z,99.90
2022-12-29T06:07:48.452Z,99.90
2022-12-29T06:12:43.970Z,99.90
2022-12-29T06:17:38.645Z,99.90
2022-12-29T06:22:31.333Z,99.90
2022-12-29T06:27:29.292Z,99.90
2022-12-29T06:32:27.215Z,99.90
2022-12-29T06:37:26.279Z,99.90
2022-12-29T06:42:24.167Z,99.90
2022-12-29T06:47:38.479Z,99.90
2022-12-29T06:52:35.318Z,99.90
2022-12-29T06:57:29.692Z,99.90
2022-12-29T07:02:37.891Z,99.90
2022-12-29T07:07:33.151Z,99.90
2022-12-29T07:12:27.774Z,99.90
2022-12-29T07:17:20.479Z,99.90
2022-12-29T07:22:14.707Z,99.90
2022-12-29T07:27:09.902Z,99.90
2022-12-29T07:32:04.169Z,99.90
2022-12-29T07:36:58.496Z,99.90
2022-12-29T07:41:53.369Z,99.90
2022-12-29T07:46:54.025Z,99.90
2022-12-29T07:51:50.217Z,99.90
2022-12-29T07:56:45.447Z,99.90
2022-12-29T08:01:40.676Z,99.90
2022-12-29T08:06:33.242Z,99.90
2022-12-29T08:11:28.950Z,99.90
2022-12-29T08:16:24.298Z,99.90
2022-12-29T08:21:18.467Z,99.90
2022-12-29T08:26:13.764Z,99.90
2022-12-29T08:31:07.755Z,99.90
2022-12-29T08:36:03.116Z,99.90
2022-12-29T08:41:08.633Z,99.90
2022-12-29T08:46:04.092Z,99.90
2022-12-29T08:50:59.698Z,99.90
2022-12-29T08:56:04.724Z,99.90
2022-12-29T09:01:12.304Z,99.90
2022-12-29T09:06:06.722Z,99.90
2022-12-29T09:11:15.361Z,99.90
2022-12-29T09:16:08.912Z,99.90
2022-12-29T09:21:04.781Z,99.90
2022-12-29T09:25:56.891Z,99.90
2022-12-29T09:30:49.665Z,99.90
2022-12-29T09:35:48.869Z,99.90
2022-12-29T09:40:41.460Z,99.90
2022-12-29T09:46:06.003Z,99.90
2022-12-29T09:51:01.891Z,99.90
2022-12-29T09:55:57.938Z,99.90
2022-12-29T10:00:59.852Z,99.90
2022-12-29T10:06:05.237Z,99.90
2022-12-29T10:11:02.194Z,99.90
2022-12-29T10:15:58.973Z,99.90
2022-12-29T10:21:37.702Z,99.90
2022-12-29T10:26:37.472Z,97.60
2022-12-29T10:32:05.613Z,95.10
2022-12-29T10:37:34.034Z,94.00
2022-12-29T10:42:50.593Z,91.10
2022-12-29T10:48:06.647Z,90.70
2022-12-29T10:53:06.542Z,94.90
2022-12-29T10:58:06.891Z,98.60
2022-12-29T11:03:00.067Z,99.70
2022-12-29T11:07:59.139Z,97.30
2022-12-29T11:13:03.690Z,98.50
2022-12-29T11:18:03.404Z,99.00
2022-12-29T11:22:59.438Z,99.90
2022-12-29T11:28:18.347Z,99.90
2022-12-29T11:33:11.099Z,99.90
2022-12-29T11:38:04.774Z,99.90
2022-12-29T11:43:03.607Z,99.90
2022-12-29T11:48:02.309Z,99.90
2022-12-29T11:53:01.442Z,99.90
2022-12-29T11:57:55.949Z,99.90
2022-12-29T12:03:19.569Z,99.90
2022-12-29T12:08:21.362Z,99.90
2022-12-29T12:13:25.136Z,99.90
2022-12-29T12:18:44.824Z,99.90
2022-12-29T12:24:03.291Z,99.90
2022-12-29T12:29:11.027Z,99.90
2022-12-29T12:34:08.328Z,99.90
2022-12-29T12:39:32.478Z,99.90
2022-12-29T12:44:43.005Z,99.90
2022-12-29T12:49:58.576Z,99.90
2022-12-29T12:55:16.417Z,99.90
2022-12-29T13:00:16.204Z,99.90
2022-12-29T13:05:09.945Z,99.90
2022-12-29T13:10:47.062Z,99.90
2022-12-29T13:16:12.358Z,99.90
2022-12-29T13:21:38.871Z,99.90
2022-12-29T13:26:43.167Z,99.90
2022-12-29T13:31:48.621Z,99.90
2022-12-29T13:36:58.299Z,99.90
2022-12-29T13:41:57.154Z,99.90
2022-12-29T13:46:50.916Z,99.90
2022-12-29T13:51:52.182Z,99.90
2022-12-29T13:57:14.066Z,99.90
2022-12-29T14:02:27.220Z,99.90
2022-12-29T14:07:20.345Z,99.90
2022-12-29T14:12:30.647Z,99.90
2022-12-29T14:17:22.874Z,99.90
2022-12-29T14:22:28.864Z,99.90
2022-12-29T14:27:32.046Z,99.90
2022-12-29T14:32:26.139Z,99.90
2022-12-29T14:37:35.651Z,99.90
2022-12-29T14:42:31.808Z,99.90
2022-12-29T14:47:27.187Z,99.90
2022-12-29T14:52:27.267Z,99.90
2022-12-29T14:57:43.595Z,99.90
2022-12-29T15:02:41.546Z,99.90
2022-12-29T15:07:35.657Z,99.90
2022-12-29T15:12:53.611Z,99.90
2022-12-29T15:17:45.565Z,99.90
2022-12-29T15:22:38.365Z,99.90
2022-12-29T15:27:31.250Z,99.90
2022-12-29T15:32:29.720Z,99.90
2022-12-29T15:37:34.855Z,99.90
2022-12-29T15:42:59.031Z,99.90
2022-12-29T15:47:54.847Z,99.90
2022-12-29T15:52:48.768Z,99.90
2022-12-29T15:57:44.145Z,99.90
2022-12-29T16:02:36.469Z,99.90
2022-12-29T16:07:41.135Z,99.90
2022-12-29T16:12:37.009Z,99.90
2022-12-29T16:17:34.368Z,99.90
2022-12-29T16:22:37.423Z,99.90
2022-12-29T16:27:43.539Z,99.90
2022-12-29T16:32:36.429Z,99.90
2022-12-29T16:37:37.311Z,99.90
2022-12-29T16:42:50.594Z,99.90
2022-12-29T16:47:43.729Z,99.90
2022-12-29T16:52:36.093Z,99.90
2022-12-29T16:57:34.923Z,99.90
2022-12-29T17:02:29.975Z,99.90
2022-12-29T17:07:25.247Z,99.90
2022-12-29T17:12:36.492Z,99.90
2022-12-29T17:17:36.559Z,99.90
2022-12-29T17:22:30.157Z,99.90
2022-12-29T17:27:30.394Z,99.90
2022-12-29T17:32:22.431Z,99.90
2022-12-29T17:37:24.621Z,99.90
2022-12-29T17:42:19.263Z,99.90
2022-12-29T17:47:16.441Z,99.90
2022-12-29T17:52:10.817Z,99.90
2022-12-29T17:57:02.796Z,99.90
2022-12-29T18:01:57.473Z,99.90
2022-12-29T18:06:50.638Z,99.90
2022-12-29T18:11:45.154Z,99.90
2022-12-29T18:16:37.257Z,99.90
2022-12-29T18:21:29.466Z,99.90
2022-12-29T18:26:28.131Z,99.90
2022-12-29T18:31:29.324Z,99.90
2022-12-29T18:36:23.891Z,99.90
2022-12-29T18:41:19.727Z,99.90
2022-12-29T18:46:14.931Z,99.90
2022-12-29T18:51:21.116Z,99.90
2022-12-29T18:56:15.300Z,99.90
2022-12-29T19:01:24.112Z,99.90
2022-12-29T19:06:18.450Z,99.90
2022-12-29T19:11:12.441Z,99.90
2022-12-29T19:16:05.491Z,99.90
2022-12-29T19:20:58.118Z,99.90
2022-12-29T19:25:52.495Z,99.90
2022-12-29T19:30:51.194Z,99.90
2022-12-29T19:35:46.064Z,99.90
2022-12-29T19:40:43.298Z,99.90
2022-12-29T19:45:40.740Z,99.90
2022-12-29T19:50:34.323Z,99.90
2022-12-29T19:55:32.921Z,99.90
2022-12-29T20:00:25.859Z,99.90
2022-12-29T20:05:17.895Z,99.90
2022-12-29T20:10:10.392Z,99.90
2022-12-29T20:15:04.536Z,99.90
2022-12-29T20:19:56.535Z,99.90
2022-12-29T20:24:50.344Z,99.90
2022-12-29T20:29:44.419Z,99.90
2022-12-29T20:34:36.978Z,99.90
2022-12-29T20:39:31.575Z,99.90
2022-12-29T20:44:24.113Z,99.90
2022-12-29T20:49:16.138Z,99.90
2022-12-29T20:54:08.122Z,99.90
2022-12-29T20:59:26.344Z,99.90
2022-12-29T21:04:13.177Z,99.90
2022-12-29T21:09:06.551Z,99.90
2022-12-29T21:14:01.329Z,99.90
2022-12-29T21:18:54.959Z,99.90
2022-12-29T21:23:47.387Z,99.90
2022-12-29T21:28:40.253Z,99.90
2022-12-29T21:33:32.211Z,99.90
2022-12-29T21:38:24.195Z,99.90
2022-12-29T21:43:16.130Z,99.90
2022-12-29T21:48:24.481Z,99.90
2022-12-29T21:53:17.351Z,99.90
2022-12-29T21:58:27.755Z,99.90
2022-12-29T22:03:38.261Z,99.90
2022-12-29T22:08:50.824Z,99.90
2022-12-29T22:13:46.853Z,99.90
2022-12-29T22:18:40.418Z,99.90
2022-12-29T22:23:32.658Z,99.90
2022-12-29T22:28:24.631Z,99.90
2022-12-29T22:33:16.606Z,99.90
2022-12-29T22:38:08.732Z,99.90
2022-12-29T22:43:00.756Z,99.90
2022-12-29T22:47:52.674Z,99.90
2022-12-29T22:52:44.754Z,99.90
2022-12-29T22:57:37.181Z,99.90
2022-12-29T23:02:30.463Z,99.90
2022-12-29T23:07:30.282Z,99.90
2022-12-29T23:12:22.436Z,99.90
2022-12-29T23:17:14.469Z,99.90
2022-12-29T23:22:06.505Z,99.90
2022-12-29T23:26:58.544Z,99.90
2022-12-29T23:31:50.704Z,99.90
2022-12-29T23:36:43.208Z,99.90
2022-12-29T23:41:35.576Z,99.90
2022-12-29T23:46:29.594Z,99.90
2022-12-29T23:51:22.117Z,99.90
2022-12-29T23:56:19.774Z,99.90
